sensor_id;sensor_type;location;lat;lon;timestamp;P1;durP1;ratioP1;P2;durP2;ratioP2
77589;SDS011;66746;51.328;12.332;2023-02-28T00:00:00;5.65;;;3.28;;
77589;SDS011;66746;51.328;12.332;2023-02-28T00:02:30;4.90;;;3.15;;
77589;SDS011;66746;51.328;12.332;2023-02-28T00:04:56;5.40;;;3.70;;
77589;SDS011;66746;51.328;12.332;2023-02-28T00:07:23;4.47;;;2.80;;
77589;SDS011;66746;51.328;12.332;2023-02-28T00:09:52;5.82;;;3.33;;
77589;SDS011;66746;51.328;12.332;2023-02-28T00:12:25;3.53;;;2.80;;
77589;SDS011;66746;51.328;12.332;2023-02-28T00:14:52;3.95;;;2.63;;
77589;SDS011;66746;51.328;12.332;2023-02-28T00:17:19;4.32;;;3.03;;
77589;SDS011;66746;51.328;12.332;2023-02-28T00:19:46;3.85;;;2.85;;
77589;SDS011;66746;51.328;12.332;2023-02-28T00:22:13;3.38;;;3.08;;
77589;SDS011;66746;51.328;12.332;2023-02-28T00:24:39;3.17;;;2.83;;
77589;SDS011;66746;51.328;12.332;2023-02-28T00:27:07;3.88;;;2.90;;
77589;SDS011;66746;51.328;12.332;2023-02-28T00:29:33;4.50;;;2.88;;
77589;SDS011;66746;51.328;12.332;2023-02-28T00:32:00;5.68;;;3.08;;
77589;SDS011;66746;51.328;12.332;2023-02-28T00:34:27;3.47;;;3.00;;
77589;SDS011;66746;51.328;12.332;2023-02-28T00:36:55;4.55;;;2.88;;
77589;SDS011;66746;51.328;12.332;2023-02-28T00:39:24;5.43;;;2.85;;
77589;SDS011;66746;51.328;12.332;2023-02-28T00:41:50;4.80;;;3.25;;
77589;SDS011;66746;51.328;12.332;2023-02-28T00:44:18;3.30;;;2.25;;
77589;SDS011;66746;51.328;12.332;2023-02-28T00:46:46;3.78;;;2.75;;
77589;SDS011;66746;51.328;12.332;2023-02-28T00:49:13;4.10;;;2.65;;
77589;SDS011;66746;51.328;12.332;2023-02-28T00:51:41;3.17;;;2.70;;
77589;SDS011;66746;51.328;12.332;2023-02-28T00:54:07;4.43;;;2.90;;
77589;SDS011;66746;51.328;12.332;2023-02-28T00:56:34;4.85;;;2.92;;
77589;SDS011;66746;51.328;12.332;2023-02-28T00:59:00;3.60;;;2.92;;
77589;SDS011;66746;51.328;12.332;2023-02-28T01:01:28;6.65;;;3.00;;
77589;SDS011;66746;51.328;12.332;2023-02-28T01:03:57;5.38;;;2.50;;
77589;SDS011;66746;51.328;12.332;2023-02-28T01:06:24;4.40;;;2.70;;
77589;SDS011;66746;51.328;12.332;2023-02-28T01:08:52;3.38;;;3.00;;
77589;SDS011;66746;51.328;12.332;2023-02-28T01:11:25;6.00;;;3.42;;
77589;SDS011;66746;51.328;12.332;2023-02-28T01:13:54;5.50;;;3.03;;
77589;SDS011;66746;51.328;12.332;2023-02-28T01:16:20;3.75;;;3.17;;
77589;SDS011;66746;51.328;12.332;2023-02-28T01:18:58;4.50;;;3.60;;
77589;SDS011;66746;51.328;12.332;2023-02-28T01:21:27;4.32;;;3.13;;
77589;SDS011;66746;51.328;12.332;2023-02-28T01:23:55;4.00;;;2.55;;
77589;SDS011;66746;51.328;12.332;2023-02-28T01:26:23;5.10;;;2.97;;
77589;SDS011;66746;51.328;12.332;2023-02-28T01:28:50;4.10;;;2.83;;
77589;SDS011;66746;51.328;12.332;2023-02-28T01:31:18;5.50;;;2.95;;
77589;SDS011;66746;51.328;12.332;2023-02-28T01:33:45;4.47;;;3.00;;
77589;SDS011;66746;51.328;12.332;2023-02-28T01:36:14;5.15;;;3.75;;
77589;SDS011;66746;51.328;12.332;2023-02-28T01:38:42;6.97;;;3.97;;
77589;SDS011;66746;51.328;12.332;2023-02-28T01:41:12;5.75;;;3.35;;
77589;SDS011;66746;51.328;12.332;2023-02-28T01:43:56;6.72;;;3.17;;
77589;SDS011;66746;51.328;12.332;2023-02-28T01:46:25;3.90;;;3.45;;
77589;SDS011;66746;51.328;12.332;2023-02-28T01:48:54;4.15;;;3.13;;
77589;SDS011;66746;51.328;12.332;2023-02-28T01:51:26;4.82;;;2.95;;
77589;SDS011;66746;51.328;12.332;2023-02-28T01:53:58;6.70;;;4.07;;
77589;SDS011;66746;51.328;12.332;2023-02-28T01:56:28;6.97;;;3.63;;
77589;SDS011;66746;51.328;12.332;2023-02-28T01:58:56;4.22;;;3.35;;
77589;SDS011;66746;51.328;12.332;2023-02-28T02:01:23;5.28;;;3.58;;
77589;SDS011;66746;51.328;12.332;2023-02-28T02:03:54;3.95;;;3.35;;
77589;SDS011;66746;51.328;12.332;2023-02-28T02:06:25;4.97;;;4.00;;
77589;SDS011;66746;51.328;12.332;2023-02-28T02:08:55;5.10;;;2.92;;
77589;SDS011;66746;51.328;12.332;2023-02-28T02:11:24;5.22;;;3.55;;
77589;SDS011;66746;51.328;12.332;2023-02-28T02:17:02;5.70;;;3.95;;
77589;SDS011;66746;51.328;12.332;2023-02-28T02:19:44;3.63;;;2.95;;
77589;SDS011;66746;51.328;12.332;2023-02-28T02:22:33;6.93;;;3.38;;
77589;SDS011;66746;51.328;12.332;2023-02-28T02:25:28;5.43;;;3.42;;
77589;SDS011;66746;51.328;12.332;2023-02-28T02:28:04;5.45;;;3.80;;
77589;SDS011;66746;51.328;12.332;2023-02-28T02:31:09;4.40;;;3.15;;
77589;SDS011;66746;51.328;12.332;2023-02-28T02:34:10;6.07;;;3.92;;
77589;SDS011;66746;51.328;12.332;2023-02-28T02:36:53;6.70;;;4.65;;
77589;SDS011;66746;51.328;12.332;2023-02-28T02:39:30;5.32;;;3.33;;
77589;SDS011;66746;51.328;12.332;2023-02-28T02:42:01;5.72;;;4.05;;
77589;SDS011;66746;51.328;12.332;2023-02-28T02:44:34;5.80;;;3.70;;
77589;SDS011;66746;51.328;12.332;2023-02-28T02:47:08;8.02;;;3.78;;
77589;SDS011;66746;51.328;12.332;2023-02-28T02:49:38;4.95;;;3.65;;
77589;SDS011;66746;51.328;12.332;2023-02-28T02:52:08;5.07;;;3.55;;
77589;SDS011;66746;51.328;12.332;2023-02-28T02:54:39;4.65;;;3.47;;
77589;SDS011;66746;51.328;12.332;2023-02-28T02:57:09;9.40;;;3.90;;
77589;SDS011;66746;51.328;12.332;2023-02-28T02:59:40;5.72;;;3.55;;
77589;SDS011;66746;51.328;12.332;2023-02-28T03:02:08;6.53;;;3.50;;
77589;SDS011;66746;51.328;12.332;2023-02-28T03:04:42;5.03;;;3.85;;
77589;SDS011;66746;51.328;12.332;2023-02-28T03:07:10;5.03;;;4.00;;
77589;SDS011;66746;51.328;12.332;2023-02-28T03:09:36;6.10;;;3.83;;
77589;SDS011;66746;51.328;12.332;2023-02-28T03:12:06;6.10;;;3.42;;
77589;SDS011;66746;51.328;12.332;2023-02-28T03:14:40;4.35;;;3.45;;
77589;SDS011;66746;51.328;12.332;2023-02-28T03:17:21;5.50;;;3.45;;
77589;SDS011;66746;51.328;12.332;2023-02-28T03:20:01;5.78;;;3.88;;
77589;SDS011;66746;51.328;12.332;2023-02-28T03:22:43;7.63;;;3.67;;
77589;SDS011;66746;51.328;12.332;2023-02-28T03:25:19;6.82;;;3.65;;
77589;SDS011;66746;51.328;12.332;2023-02-28T03:27:55;6.63;;;3.88;;
77589;SDS011;66746;51.328;12.332;2023-02-28T03:30:29;6.85;;;3.80;;
77589;SDS011;66746;51.328;12.332;2023-02-28T03:33:03;8.20;;;3.95;;
77589;SDS011;66746;51.328;12.332;2023-02-28T03:35:36;4.68;;;3.13;;
77589;SDS011;66746;51.328;12.332;2023-02-28T03:38:07;4.75;;;3.33;;
77589;SDS011;66746;51.328;12.332;2023-02-28T03:43:06;4.68;;;3.63;;
77589;SDS011;66746;51.328;12.332;2023-02-28T03:45:37;4.38;;;3.08;;
77589;SDS011;66746;51.328;12.332;2023-02-28T03:48:07;7.15;;;4.05;;
77589;SDS011;66746;51.328;12.332;2023-02-28T03:50:41;7.45;;;3.53;;
77589;SDS011;66746;51.328;12.332;2023-02-28T03:53:11;5.10;;;4.60;;
77589;SDS011;66746;51.328;12.332;2023-02-28T03:55:40;6.05;;;4.28;;
77589;SDS011;66746;51.328;12.332;2023-02-28T03:58:12;3.88;;;3.30;;
77589;SDS011;66746;51.328;12.332;2023-02-28T04:00:46;4.80;;;3.55;;
77589;SDS011;66746;51.328;12.332;2023-02-28T04:03:19;5.18;;;3.15;;
77589;SDS011;66746;51.328;12.332;2023-02-28T04:05:48;6.03;;;3.30;;
77589;SDS011;66746;51.328;12.332;2023-02-28T04:08:17;4.55;;;3.50;;
77589;SDS011;66746;51.328;12.332;2023-02-28T04:10:45;7.20;;;3.97;;
77589;SDS011;66746;51.328;12.332;2023-02-28T04:13:16;8.27;;;3.90;;
77589;SDS011;66746;51.328;12.332;2023-02-28T04:15:43;7.35;;;3.70;;
77589;SDS011;66746;51.328;12.332;2023-02-28T04:18:09;10.13;;;4.03;;
77589;SDS011;66746;51.328;12.332;2023-02-28T04:20:36;7.28;;;3.85;;
77589;SDS011;66746;51.328;12.332;2023-02-28T04:23:03;5.38;;;3.38;;
77589;SDS011;66746;51.328;12.332;2023-02-28T04:25:30;8.43;;;3.88;;
77589;SDS011;66746;51.328;12.332;2023-02-28T04:27:56;6.68;;;3.42;;
77589;SDS011;66746;51.328;12.332;2023-02-28T04:30:23;6.50;;;3.45;;
77589;SDS011;66746;51.328;12.332;2023-02-28T04:32:49;5.72;;;3.67;;
77589;SDS011;66746;51.328;12.332;2023-02-28T04:35:16;5.43;;;3.58;;
77589;SDS011;66746;51.328;12.332;2023-02-28T04:37:42;6.00;;;3.38;;
77589;SDS011;66746;51.328;12.332;2023-02-28T04:40:11;7.07;;;3.95;;
77589;SDS011;66746;51.328;12.332;2023-02-28T04:42:37;7.82;;;3.65;;
77589;SDS011;66746;51.328;12.332;2023-02-28T04:45:04;6.53;;;4.22;;
77589;SDS011;66746;51.328;12.332;2023-02-28T04:47:31;5.78;;;3.58;;
77589;SDS011;66746;51.328;12.332;2023-02-28T04:49:58;5.03;;;3.55;;
77589;SDS011;66746;51.328;12.332;2023-02-28T04:52:24;8.50;;;4.05;;
77589;SDS011;66746;51.328;12.332;2023-02-28T04:54:53;7.70;;;4.55;;
77589;SDS011;66746;51.328;12.332;2023-02-28T04:57:21;4.50;;;3.40;;
77589;SDS011;66746;51.328;12.332;2023-02-28T04:59:49;7.20;;;3.63;;
77589;SDS011;66746;51.328;12.332;2023-02-28T05:02:16;7.65;;;4.90;;
77589;SDS011;66746;51.328;12.332;2023-02-28T05:04:42;4.90;;;3.70;;
77589;SDS011;66746;51.328;12.332;2023-02-28T05:07:09;8.10;;;4.65;;
77589;SDS011;66746;51.328;12.332;2023-02-28T05:09:35;6.07;;;4.13;;
77589;SDS011;66746;51.328;12.332;2023-02-28T05:12:02;6.18;;;3.50;;
77589;SDS011;66746;51.328;12.332;2023-02-28T05:14:30;6.57;;;3.58;;
77589;SDS011;66746;51.328;12.332;2023-02-28T05:16:58;5.95;;;4.22;;
77589;SDS011;66746;51.328;12.332;2023-02-28T05:19:26;7.22;;;4.93;;
77589;SDS011;66746;51.328;12.332;2023-02-28T05:21:53;6.32;;;5.03;;
77589;SDS011;66746;51.328;12.332;2023-02-28T05:24:20;8.13;;;4.85;;
77589;SDS011;66746;51.328;12.332;2023-02-28T05:26:48;5.70;;;4.75;;
77589;SDS011;66746;51.328;12.332;2023-02-28T05:29:15;10.63;;;4.18;;
77589;SDS011;66746;51.328;12.332;2023-02-28T05:31:43;7.40;;;4.93;;
77589;SDS011;66746;51.328;12.332;2023-02-28T05:34:23;5.07;;;4.43;;
77589;SDS011;66746;51.328;12.332;2023-02-28T05:36:51;9.23;;;4.80;;
77589;SDS011;66746;51.328;12.332;2023-02-28T05:39:18;4.57;;;3.55;;
77589;SDS011;66746;51.328;12.332;2023-02-28T05:41:44;5.50;;;3.85;;
77589;SDS011;66746;51.328;12.332;2023-02-28T05:44:11;6.90;;;4.50;;
77589;SDS011;66746;51.328;12.332;2023-02-28T05:46:37;6.72;;;4.28;;
77589;SDS011;66746;51.328;12.332;2023-02-28T05:49:05;6.35;;;4.47;;
77589;SDS011;66746;51.328;12.332;2023-02-28T05:51:32;9.05;;;4.32;;
77589;SDS011;66746;51.328;12.332;2023-02-28T05:53:59;7.65;;;4.95;;
77589;SDS011;66746;51.328;12.332;2023-02-28T05:56:26;15.77;;;6.90;;
77589;SDS011;66746;51.328;12.332;2023-02-28T05:58:52;10.65;;;6.00;;
77589;SDS011;66746;51.328;12.332;2023-02-28T06:01:20;7.25;;;4.63;;
77589;SDS011;66746;51.328;12.332;2023-02-28T06:03:49;9.23;;;4.50;;
77589;SDS011;66746;51.328;12.332;2023-02-28T06:06:17;10.65;;;4.93;;
77589;SDS011;66746;51.328;12.332;2023-02-28T06:08:44;8.23;;;5.20;;
77589;SDS011;66746;51.328;12.332;2023-02-28T06:11:10;7.68;;;4.57;;
77589;SDS011;66746;51.328;12.332;2023-02-28T06:13:37;5.95;;;4.20;;
77589;SDS011;66746;51.328;12.332;2023-02-28T06:16:04;7.78;;;4.25;;
77589;SDS011;66746;51.328;12.332;2023-02-28T06:18:31;9.98;;;4.63;;
77589;SDS011;66746;51.328;12.332;2023-02-28T06:20:58;5.88;;;4.15;;
77589;SDS011;66746;51.328;12.332;2023-02-28T06:23:28;4.32;;;3.50;;
77589;SDS011;66746;51.328;12.332;2023-02-28T06:25:54;7.07;;;5.55;;
77589;SDS011;66746;51.328;12.332;2023-02-28T06:28:21;7.38;;;4.53;;
77589;SDS011;66746;51.328;12.332;2023-02-28T06:30:47;6.53;;;4.47;;
77589;SDS011;66746;51.328;12.332;2023-02-28T06:33:14;6.53;;;4.57;;
77589;SDS011;66746;51.328;12.332;2023-02-28T06:35:42;7.43;;;5.50;;
77589;SDS011;66746;51.328;12.332;2023-02-28T06:38:09;5.53;;;3.67;;
77589;SDS011;66746;51.328;12.332;2023-02-28T06:40:37;6.53;;;4.70;;
77589;SDS011;66746;51.328;12.332;2023-02-28T06:43:04;7.05;;;5.18;;
77589;SDS011;66746;51.328;12.332;2023-02-28T06:45:30;6.75;;;4.57;;
77589;SDS011;66746;51.328;12.332;2023-02-28T06:47:57;7.68;;;4.20;;
77589;SDS011;66746;51.328;12.332;2023-02-28T06:50:23;5.78;;;3.95;;
77589;SDS011;66746;51.328;12.332;2023-02-28T06:52:50;8.32;;;4.40;;
77589;SDS011;66746;51.328;12.332;2023-02-28T06:55:16;6.47;;;4.90;;
77589;SDS011;66746;51.328;12.332;2023-02-28T06:57:44;5.85;;;3.95;;
77589;SDS011;66746;51.328;12.332;2023-02-28T07:00:11;7.80;;;4.85;;
77589;SDS011;66746;51.328;12.332;2023-02-28T07:02:38;6.30;;;4.10;;
77589;SDS011;66746;51.328;12.332;2023-02-28T07:05:05;6.45;;;4.30;;
77589;SDS011;66746;51.328;12.332;2023-02-28T07:07:32;8.05;;;5.22;;
77589;SDS011;66746;51.328;12.332;2023-02-28T07:09:58;6.00;;;4.40;;
77589;SDS011;66746;51.328;12.332;2023-02-28T07:12:25;6.80;;;5.10;;
77589;SDS011;66746;51.328;12.332;2023-02-28T07:14:53;7.45;;;5.72;;
77589;SDS011;66746;51.328;12.332;2023-02-28T07:17:19;8.93;;;4.63;;
77589;SDS011;66746;51.328;12.332;2023-02-28T07:19:46;5.38;;;3.92;;
77589;SDS011;66746;51.328;12.332;2023-02-28T07:22:12;9.25;;;4.63;;
77589;SDS011;66746;51.328;12.332;2023-02-28T07:24:41;7.50;;;4.07;;
77589;SDS011;66746;51.328;12.332;2023-02-28T07:27:07;7.38;;;4.40;;
77589;SDS011;66746;51.328;12.332;2023-02-28T07:29:34;9.15;;;4.40;;
77589;SDS011;66746;51.328;12.332;2023-02-28T07:32:02;8.40;;;5.13;;
77589;SDS011;66746;51.328;12.332;2023-02-28T07:34:28;7.03;;;4.78;;
77589;SDS011;66746;51.328;12.332;2023-02-28T07:36:55;7.15;;;5.00;;
77589;SDS011;66746;51.328;12.332;2023-02-28T07:39:21;12.68;;;5.03;;
77589;SDS011;66746;51.328;12.332;2023-02-28T07:41:48;8.10;;;4.28;;
77589;SDS011;66746;51.328;12.332;2023-02-28T07:44:14;10.00;;;5.05;;
77589;SDS011;66746;51.328;12.332;2023-02-28T07:46:41;7.88;;;4.40;;
77589;SDS011;66746;51.328;12.332;2023-02-28T07:49:09;5.60;;;4.30;;
77589;SDS011;66746;51.328;12.332;2023-02-28T07:51:36;8.30;;;5.18;;
77589;SDS011;66746;51.328;12.332;2023-02-28T07:54:08;8.68;;;5.50;;
77589;SDS011;66746;51.328;12.332;2023-02-28T07:56:42;7.40;;;4.85;;
77589;SDS011;66746;51.328;12.332;2023-02-28T07:59:09;9.55;;;5.20;;
77589;SDS011;66746;51.328;12.332;2023-02-28T08:01:37;8.98;;;4.95;;
77589;SDS011;66746;51.328;12.332;2023-02-28T08:04:07;6.00;;;5.07;;
77589;SDS011;66746;51.328;12.332;2023-02-28T08:06:38;8.38;;;4.47;;
77589;SDS011;66746;51.328;12.332;2023-02-28T08:09:10;8.05;;;4.80;;
77589;SDS011;66746;51.328;12.332;2023-02-28T08:11:39;6.47;;;4.35;;
77589;SDS011;66746;51.328;12.332;2023-02-28T08:14:05;7.43;;;5.22;;
77589;SDS011;66746;51.328;12.332;2023-02-28T08:16:42;10.02;;;4.60;;
77589;SDS011;66746;51.328;12.332;2023-02-28T08:19:12;6.82;;;4.28;;
77589;SDS011;66746;51.328;12.332;2023-02-28T08:21:41;5.85;;;3.83;;
77589;SDS011;66746;51.328;12.332;2023-02-28T08:24:07;5.90;;;4.57;;
77589;SDS011;66746;51.328;12.332;2023-02-28T08:26:37;8.90;;;4.57;;
77589;SDS011;66746;51.328;12.332;2023-02-28T08:29:04;4.78;;;3.50;;
77589;SDS011;66746;51.328;12.332;2023-02-28T08:31:30;5.90;;;4.40;;
77589;SDS011;66746;51.328;12.332;2023-02-28T08:33:57;8.32;;;4.53;;
77589;SDS011;66746;51.328;12.332;2023-02-28T08:36:25;11.63;;;3.75;;
77589;SDS011;66746;51.328;12.332;2023-02-28T08:38:52;7.50;;;3.60;;
77589;SDS011;66746;51.328;12.332;2023-02-28T08:41:19;6.00;;;4.75;;
77589;SDS011;66746;51.328;12.332;2023-02-28T08:43:46;7.20;;;4.95;;
77589;SDS011;66746;51.328;12.332;2023-02-28T08:46:12;6.28;;;4.28;;
77589;SDS011;66746;51.328;12.332;2023-02-28T08:48:40;5.90;;;4.00;;
77589;SDS011;66746;51.328;12.332;2023-02-28T08:51:09;4.53;;;3.22;;
77589;SDS011;66746;51.328;12.332;2023-02-28T08:53:40;5.72;;;4.05;;
77589;SDS011;66746;51.328;12.332;2023-02-28T08:56:09;7.95;;;3.60;;
77589;SDS011;66746;51.328;12.332;2023-02-28T08:58:37;5.55;;;3.35;;
77589;SDS011;66746;51.328;12.332;2023-02-28T09:01:08;4.13;;;3.72;;
77589;SDS011;66746;51.328;12.332;2023-02-28T09:03:37;4.18;;;2.67;;
77589;SDS011;66746;51.328;12.332;2023-02-28T09:06:10;4.63;;;3.60;;
77589;SDS011;66746;51.328;12.332;2023-02-28T09:08:40;4.40;;;3.22;;
77589;SDS011;66746;51.328;12.332;2023-02-28T09:11:07;6.63;;;3.53;;
77589;SDS011;66746;51.328;12.332;2023-02-28T09:13:42;5.25;;;4.00;;
77589;SDS011;66746;51.328;12.332;2023-02-28T09:16:10;7.20;;;3.25;;
77589;SDS011;66746;51.328;12.332;2023-02-28T09:18:42;4.38;;;3.55;;
77589;SDS011;66746;51.328;12.332;2023-02-28T09:21:11;6.25;;;3.45;;
77589;SDS011;66746;51.328;12.332;2023-02-28T09:23:40;4.45;;;3.17;;
77589;SDS011;66746;51.328;12.332;2023-02-28T09:28:39;5.47;;;4.03;;
77589;SDS011;66746;51.328;12.332;2023-02-28T09:31:11;5.00;;;4.22;;
77589;SDS011;66746;51.328;12.332;2023-02-28T09:33:42;7.32;;;4.28;;
77589;SDS011;66746;51.328;12.332;2023-02-28T09:36:10;5.40;;;4.05;;
77589;SDS011;66746;51.328;12.332;2023-02-28T09:38:38;6.82;;;4.25;;
77589;SDS011;66746;51.328;12.332;2023-02-28T09:41:13;6.15;;;4.50;;
77589;SDS011;66746;51.328;12.332;2023-02-28T09:43:45;6.40;;;5.05;;
77589;SDS011;66746;51.328;12.332;2023-02-28T09:46:20;6.65;;;4.38;;
77589;SDS011;66746;51.328;12.332;2023-02-28T09:48:53;5.47;;;4.40;;
77589;SDS011;66746;51.328;12.332;2023-02-28T09:51:30;6.60;;;4.88;;
77589;SDS011;66746;51.328;12.332;2023-02-28T09:54:16;5.10;;;4.03;;
77589;SDS011;66746;51.328;12.332;2023-02-28T09:56:47;4.97;;;3.78;;
77589;SDS011;66746;51.328;12.332;2023-02-28T09:59:18;7.55;;;5.03;;
77589;SDS011;66746;51.328;12.332;2023-02-28T10:01:56;5.35;;;4.63;;
77589;SDS011;66746;51.328;12.332;2023-02-28T10:04:33;5.63;;;4.95;;
77589;SDS011;66746;51.328;12.332;2023-02-28T10:07:16;6.05;;;4.07;;
77589;SDS011;66746;51.328;12.332;2023-02-28T10:09:50;5.85;;;4.28;;
77589;SDS011;66746;51.328;12.332;2023-02-28T10:12:21;6.97;;;5.22;;
77589;SDS011;66746;51.328;12.332;2023-02-28T10:14:49;5.72;;;4.20;;
77589;SDS011;66746;51.328;12.332;2023-02-28T10:17:19;5.47;;;4.70;;
77589;SDS011;66746;51.328;12.332;2023-02-28T10:19:50;6.18;;;4.65;;
77589;SDS011;66746;51.328;12.332;2023-02-28T10:22:26;4.80;;;3.80;;
77589;SDS011;66746;51.328;12.332;2023-02-28T10:24:58;5.60;;;4.60;;
77589;SDS011;66746;51.328;12.332;2023-02-28T10:27:28;7.22;;;4.30;;
77589;SDS011;66746;51.328;12.332;2023-02-28T10:29:57;4.43;;;3.53;;
77589;SDS011;66746;51.328;12.332;2023-02-28T10:32:26;4.85;;;4.35;;
77589;SDS011;66746;51.328;12.332;2023-02-28T10:34:55;6.15;;;4.18;;
77589;SDS011;66746;51.328;12.332;2023-02-28T10:39:52;7.03;;;4.95;;
77589;SDS011;66746;51.328;12.332;2023-02-28T10:42:20;4.50;;;3.90;;
77589;SDS011;66746;51.328;12.332;2023-02-28T10:44:50;5.43;;;4.10;;
77589;SDS011;66746;51.328;12.332;2023-02-28T10:47:41;6.63;;;5.07;;
77589;SDS011;66746;51.328;12.332;2023-02-28T10:50:29;5.25;;;3.50;;
77589;SDS011;66746;51.328;12.332;2023-02-28T10:53:07;5.63;;;4.70;;
77589;SDS011;66746;51.328;12.332;2023-02-28T10:58:19;6.18;;;4.20;;
77589;SDS011;66746;51.328;12.332;2023-02-28T11:00:48;5.88;;;4.45;;
77589;SDS011;66746;51.328;12.332;2023-02-28T11:03:23;7.00;;;5.20;;
77589;SDS011;66746;51.328;12.332;2023-02-28T11:05:51;6.60;;;3.92;;
77589;SDS011;66746;51.328;12.332;2023-02-28T11:08:17;4.80;;;4.07;;
77589;SDS011;66746;51.328;12.332;2023-02-28T11:10:45;7.10;;;5.07;;
77589;SDS011;66746;51.328;12.332;2023-02-28T11:13:16;7.00;;;4.85;;
77589;SDS011;66746;51.328;12.332;2023-02-28T11:15:46;6.72;;;4.20;;
77589;SDS011;66746;51.328;12.332;2023-02-28T11:18:21;5.82;;;4.35;;
77589;SDS011;66746;51.328;12.332;2023-02-28T11:20:51;7.70;;;4.47;;
77589;SDS011;66746;51.328;12.332;2023-02-28T11:23:20;6.80;;;5.15;;
77589;SDS011;66746;51.328;12.332;2023-02-28T11:25:47;7.22;;;4.22;;
77589;SDS011;66746;51.328;12.332;2023-02-28T11:28:24;6.43;;;4.78;;
77589;SDS011;66746;51.328;12.332;2023-02-28T11:31:04;6.30;;;4.82;;
77589;SDS011;66746;51.328;12.332;2023-02-28T11:33:40;6.50;;;4.70;;
77589;SDS011;66746;51.328;12.332;2023-02-28T11:36:10;6.93;;;4.93;;
77589;SDS011;66746;51.328;12.332;2023-02-28T11:38:41;8.18;;;5.05;;
77589;SDS011;66746;51.328;12.332;2023-02-28T11:41:14;7.03;;;4.82;;
77589;SDS011;66746;51.328;12.332;2023-02-28T11:47:00;7.03;;;5.55;;
77589;SDS011;66746;51.328;12.332;2023-02-28T11:49:39;6.05;;;4.72;;
77589;SDS011;66746;51.328;12.332;2023-02-28T11:52:17;5.22;;;4.50;;
77589;SDS011;66746;51.328;12.332;2023-02-28T11:54:54;8.70;;;6.38;;
77589;SDS011;66746;51.328;12.332;2023-02-28T11:57:35;9.07;;;4.82;;
77589;SDS011;66746;51.328;12.332;2023-02-28T12:00:14;6.97;;;4.90;;
77589;SDS011;66746;51.328;12.332;2023-02-28T12:02:58;8.02;;;5.05;;
77589;SDS011;66746;51.328;12.332;2023-02-28T12:05:38;6.28;;;5.00;;
77589;SDS011;66746;51.328;12.332;2023-02-28T12:08:18;7.13;;;5.15;;
77589;SDS011;66746;51.328;12.332;2023-02-28T12:10:54;8.68;;;5.55;;
77589;SDS011;66746;51.328;12.332;2023-02-28T12:13:29;8.18;;;6.38;;
77589;SDS011;66746;51.328;12.332;2023-02-28T12:16:20;8.27;;;5.95;;
77589;SDS011;66746;51.328;12.332;2023-02-28T12:19:15;7.30;;;4.78;;
77589;SDS011;66746;51.328;12.332;2023-02-28T12:21:52;6.38;;;5.78;;
77589;SDS011;66746;51.328;12.332;2023-02-28T12:24:39;7.93;;;5.75;;
77589;SDS011;66746;51.328;12.332;2023-02-28T12:27:45;9.68;;;6.63;;
77589;SDS011;66746;51.328;12.332;2023-02-28T12:30:14;7.20;;;5.35;;
77589;SDS011;66746;51.328;12.332;2023-02-28T12:32:45;9.30;;;5.93;;
77589;SDS011;66746;51.328;12.332;2023-02-28T12:35:17;6.35;;;5.20;;
77589;SDS011;66746;51.328;12.332;2023-02-28T12:37:50;7.10;;;5.85;;
77589;SDS011;66746;51.328;12.332;2023-02-28T12:40:22;8.82;;;5.88;;
77589;SDS011;66746;51.328;12.332;2023-02-28T12:42:51;7.13;;;5.80;;
77589;SDS011;66746;51.328;12.332;2023-02-28T12:45:21;7.20;;;5.85;;
77589;SDS011;66746;51.328;12.332;2023-02-28T12:47:50;6.78;;;6.07;;
77589;SDS011;66746;51.328;12.332;2023-02-28T12:50:23;8.50;;;6.18;;
77589;SDS011;66746;51.328;12.332;2023-02-28T12:52:53;8.40;;;6.25;;
77589;SDS011;66746;51.328;12.332;2023-02-28T12:55:31;9.52;;;5.93;;
77589;SDS011;66746;51.328;12.332;2023-02-28T12:58:10;6.25;;;5.35;;
77589;SDS011;66746;51.328;12.332;2023-02-28T13:00:46;10.32;;;7.22;;
77589;SDS011;66746;51.328;12.332;2023-02-28T13:03:41;9.88;;;6.80;;
77589;SDS011;66746;51.328;12.332;2023-02-28T13:06:32;8.85;;;6.85;;
77589;SDS011;66746;51.328;12.332;2023-02-28T13:09:12;8.68;;;7.57;;
77589;SDS011;66746;51.328;12.332;2023-02-28T13:11:44;9.20;;;7.00;;
77589;SDS011;66746;51.328;12.332;2023-02-28T13:14:18;8.75;;;7.07;;
77589;SDS011;66746;51.328;12.332;2023-02-28T13:19:30;7.78;;;6.60;;
77589;SDS011;66746;51.328;12.332;2023-02-28T13:22:00;9.43;;;7.43;;
77589;SDS011;66746;51.328;12.332;2023-02-28T13:33:21;8.93;;;7.88;;
77589;SDS011;66746;51.328;12.332;2023-02-28T13:36:07;8.38;;;6.80;;
77589;SDS011;66746;51.328;12.332;2023-02-28T13:38:50;11.32;;;6.90;;
77589;SDS011;66746;51.328;12.332;2023-02-28T13:44:21;10.15;;;7.63;;
77589;SDS011;66746;51.328;12.332;2023-02-28T13:49:48;7.53;;;6.35;;
77589;SDS011;66746;51.328;12.332;2023-02-28T13:52:17;9.07;;;6.95;;
77589;SDS011;66746;51.328;12.332;2023-02-28T13:54:54;10.18;;;7.72;;
77589;SDS011;66746;51.328;12.332;2023-02-28T13:57:33;8.23;;;7.43;;
77589;SDS011;66746;51.328;12.332;2023-02-28T14:00:15;8.40;;;7.50;;
77589;SDS011;66746;51.328;12.332;2023-02-28T14:02:52;9.45;;;7.40;;
77589;SDS011;66746;51.328;12.332;2023-02-28T14:05:39;8.05;;;6.60;;
77589;SDS011;66746;51.328;12.332;2023-02-28T14:08:10;10.35;;;6.10;;
77589;SDS011;66746;51.328;12.332;2023-02-28T14:10:44;7.82;;;6.38;;
77589;SDS011;66746;51.328;12.332;2023-02-28T14:13:13;10.57;;;7.35;;
77589;SDS011;66746;51.328;12.332;2023-02-28T14:16:06;10.27;;;6.90;;
77589;SDS011;66746;51.328;12.332;2023-02-28T14:18:40;10.32;;;7.75;;
77589;SDS011;66746;51.328;12.332;2023-02-28T14:21:14;9.18;;;7.20;;
77589;SDS011;66746;51.328;12.332;2023-02-28T14:33:08;10.73;;;6.63;;
77589;SDS011;66746;51.328;12.332;2023-02-28T14:35:51;7.15;;;6.45;;
77589;SDS011;66746;51.328;12.332;2023-02-28T14:38:27;9.07;;;6.80;;
77589;SDS011;66746;51.328;12.332;2023-02-28T14:40:58;8.48;;;6.50;;
77589;SDS011;66746;51.328;12.332;2023-02-28T14:43:30;10.07;;;6.80;;
77589;SDS011;66746;51.328;12.332;2023-02-28T14:45:58;8.88;;;6.72;;
77589;SDS011;66746;51.328;12.332;2023-02-28T14:48:26;10.05;;;6.60;;
77589;SDS011;66746;51.328;12.332;2023-02-28T14:50:54;11.52;;;6.38;;
77589;SDS011;66746;51.328;12.332;2023-02-28T14:53:25;7.93;;;6.57;;
77589;SDS011;66746;51.328;12.332;2023-02-28T14:55:54;9.82;;;8.10;;
77589;SDS011;66746;51.328;12.332;2023-02-28T14:58:22;9.48;;;6.57;;
77589;SDS011;66746;51.328;12.332;2023-02-28T15:00:52;9.65;;;6.80;;
77589;SDS011;66746;51.328;12.332;2023-02-28T15:03:21;9.07;;;6.95;;
77589;SDS011;66746;51.328;12.332;2023-02-28T15:05:53;9.73;;;7.30;;
77589;SDS011;66746;51.328;12.332;2023-02-28T15:08:21;10.18;;;7.05;;
77589;SDS011;66746;51.328;12.332;2023-02-28T15:10:51;10.75;;;7.13;;
77589;SDS011;66746;51.328;12.332;2023-02-28T15:13:20;8.63;;;6.00;;
77589;SDS011;66746;51.328;12.332;2023-02-28T15:15:50;8.50;;;7.05;;
77589;SDS011;66746;51.328;12.332;2023-02-28T15:18:30;8.25;;;7.38;;
77589;SDS011;66746;51.328;12.332;2023-02-28T15:21:06;10.40;;;6.80;;
77589;SDS011;66746;51.328;12.332;2023-02-28T15:23:37;9.65;;;6.97;;
77589;SDS011;66746;51.328;12.332;2023-02-28T15:26:09;11.65;;;6.72;;
77589;SDS011;66746;51.328;12.332;2023-02-28T15:28:43;9.20;;;7.03;;
77589;SDS011;66746;51.328;12.332;2023-02-28T15:31:20;9.23;;;7.00;;
77589;SDS011;66746;51.328;12.332;2023-02-28T15:33:53;9.73;;;7.05;;
77589;SDS011;66746;51.328;12.332;2023-02-28T15:36:21;11.20;;;7.70;;
77589;SDS011;66746;51.328;12.332;2023-02-28T15:38:51;9.60;;;7.00;;